Time;durP1;ratioP1;P1;durP2;ratioP2;P2;SDS_P1;SDS_P2;PMS_P1;PMS_P2;Temp;Humidity;BMP_temperature;BMP_pressure;BME280_temperature;BME280_humidity;BME280_pressure;Samples;Min_cycle;Max_cycle;Signal;HPM_P1;HPM_P2
2024/04/18 00:02:17;;;;;;;4.63;2.05;;;;;;;5.61;77.29;93406.78;5463561;26;20695;-66
2024/04/18 00:04:42;;;;;;;3.15;2.10;;;;;;;5.53;76.68;93402.28;5412797;26;20018;-66
2024/04/18 00:07:07;;;;;;;2.92;2.03;;;;;;;5.38;76.43;93376.09;5457259;26;19998;-65
2024/04/18 00:09:33;;;;;;;3.08;1.98;;;;;;;5.47;76.66;93415.69;5457516;26;19994;-66
2024/04/18 00:11:58;;;;;;;3.20;2.10;;;;;;;5.44;77.12;93410.81;5488661;26;20005;-66
2024/04/18 00:14:24;;;;;;;2.70;2.13;;;;;;;5.64;76.63;93416.81;5522120;26;20392;-66
2024/04/18 00:16:49;;;;;;;2.88;1.98;;;;;;;5.48;76.90;93407.00;5525990;26;20460;-66
2024/04/18 00:19:15;;;;;;;3.92;2.38;;;;;;;5.53;76.94;93415.16;5525833;26;20098;-66
2024/04/18 00:21:40;;;;;;;3.20;2.20;;;;;;;5.49;76.76;93407.81;5456085;26;19998;-66
2024/04/18 00:24:06;;;;;;;2.72;1.98;;;;;;;5.72;78.21;93409.25;5493039;26;20009;-66
2024/04/18 00:26:31;;;;;;;3.22;1.90;;;;;;;5.21;76.61;93414.50;5493805;26;20363;-65
2024/04/18 00:28:57;;;;;;;3.08;2.35;;;;;;;5.27;76.51;93419.94;5493369;26;20048;-65
2024/04/18 00:31:22;;;;;;;3.55;2.40;;;;;;;5.40;76.25;93414.56;5520488;26;20016;-65
2024/04/18 00:33:47;;;;;;;3.50;2.40;;;;;;;5.54;77.41;93408.25;5525538;26;20431;-65
2024/04/18 00:36:13;;;;;;;3.35;2.30;;;;;;;5.66;77.09;93406.41;5525528;26;20011;-66
2024/04/18 00:38:38;;;;;;;3.40;2.60;;;;;;;5.57;77.20;93390.78;5526203;26;20004;-66
2024/04/18 00:41:04;;;;;;;3.35;2.42;;;;;;;5.41;76.31;93384.50;5520099;26;19998;-66
2024/04/18 00:43:30;;;;;;;4.13;2.95;;;;;;;5.41;77.18;93393.03;5525452;26;19997;-66
2024/04/18 00:45:56;;;;;;;3.78;2.78;;;;;;;5.30;78.46;93393.94;5462473;26;20000;-66
2024/04/18 00:48:22;;;;;;;3.45;2.67;;;;;;;5.42;76.92;93397.22;5462870;26;19993;-66
2024/04/18 00:50:49;;;;;;;3.30;2.30;;;;;;;5.05;76.94;93379.75;5490442;26;20001;-65
2024/04/18 00:53:14;;;;;;;4.45;2.47;;;;;;;5.19;76.19;93394.03;5493398;26;19990;-66
2024/04/18 00:55:39;;;;;;;3.60;2.42;;;;;;;5.19;76.14;93403.53;5493185;26;19989;-65
2024/04/18 00:58:05;;;;;;;3.97;2.72;;;;;;;5.19;78.35;93395.81;5491443;26;20003;-65
2024/04/18 01:00:30;;;;;;;4.50;2.92;;;;;;;5.20;75.65;93393.06;5454912;26;20455;-65
2024/04/18 01:02:55;;;;;;;4.15;2.90;;;;;;;5.15;76.23;93388.34;5447467;26;20081;-66
2024/04/18 01:05:21;;;;;;;4.43;3.10;;;;;;;5.30;77.50;93393.94;5525064;26;20041;-66
2024/04/18 01:07:46;;;;;;;4.05;3.03;;;;;;;5.12;75.68;93401.44;5483468;26;20002;-66
2024/04/18 01:10:12;;;;;;;3.95;2.92;;;;;;;5.10;75.76;93398.19;5488292;26;20018;-66
2024/04/18 01:12:37;;;;;;;3.83;2.85;;;;;;;5.15;75.24;93401.22;5456091;26;20133;-66
2024/04/18 01:15:03;;;;;;;3.80;3.05;;;;;;;5.24;75.66;93402.19;5488059;26;20360;-66
2024/04/18 01:17:28;;;;;;;4.03;3.13;;;;;;;5.02;76.49;93399.78;5509598;26;20038;-65
2024/04/18 01:19:53;;;;;;;4.55;2.85;;;;;;;5.13;76.85;93381.69;5524879;26;20399;-66
2024/04/18 01:22:19;;;;;;;3.90;3.10;;;;;;;5.20;77.03;93400.00;5461800;26;19993;-66
2024/04/18 01:24:44;;;;;;;4.38;3.33;;;;;;;4.92;76.61;93387.66;5461971;26;20468;-66
2024/04/18 01:27:10;;;;;;;4.25;3.05;;;;;;;5.15;76.69;93408.94;5488708;26;19999;-66
2024/04/18 01:29:35;;;;;;;4.88;3.30;;;;;;;5.06;78.15;93385.69;5523419;26;19985;-66
2024/04/18 01:32:00;;;;;;;5.82;3.03;;;;;;;5.18;76.04;93386.44;5492229;26;20386;-65
2024/04/18 01:34:26;;;;;;;4.10;2.90;;;;;;;5.13;76.18;93366.25;5485646;26;20014;-66
2024/04/18 01:36:51;;;;;;;4.03;2.80;;;;;;;5.13;75.05;93391.97;5487010;26;20061;-66
2024/04/18 01:39:17;;;;;;;3.67;2.63;;;;;;;5.11;76.84;93388.72;5492109;26;20000;-66
2024/04/18 01:41:42;;;;;;;4.57;3.05;;;;;;;5.21;75.59;93396.47;5492231;26;20062;-66
2024/04/18 01:44:08;;;;;;;3.97;3.17;;;;;;;5.02;75.88;93390.31;5490766;26;19993;-66
2024/04/18 01:46:33;;;;;;;4.38;3.20;;;;;;;4.97;75.66;93387.28;5461554;26;20012;-65
2024/04/18 01:48:59;;;;;;;4.07;3.05;;;;;;;5.01;78.04;93383.50;5491770;26;19997;-66
2024/04/18 01:51:24;;;;;;;3.80;2.85;;;;;;;5.11;76.35;93393.84;5491848;26;20069;-66
2024/04/18 01:53:49;;;;;;;6.22;4.38;;;;;;;5.03;75.91;93391.91;5488968;26;20050;-66
2024/04/18 01:56:15;;;;;;;4.47;3.10;;;;;;;5.11;76.75;93396.44;5524542;26;20026;-66
2024/04/18 01:58:40;;;;;;;4.18;3.00;;;;;;;4.95;75.26;93388.38;5524377;26;20428;-66
2024/04/18 02:01:06;;;;;;;4.28;2.95;;;;;;;4.89;75.48;93398.22;5461294;26;19990;-66
2024/04/18 02:03:31;;;;;;;4.47;3.20;;;;;;;5.12;75.07;93403.19;5521889;25;20005;-66
2024/04/18 02:05:56;;;;;;;4.57;2.85;;;;;;;5.07;73.95;93408.75;5495677;26;20005;-66
2024/04/18 02:08:22;;;;;;;3.40;2.60;;;;;;;5.04;74.49;93413.31;5435211;26;20442;-66
2024/04/18 02:10:50;;;;;;;4.15;2.80;;;;;;;5.00;74.55;93411.97;5461137;26;20412;-66
2024/04/18 02:13:16;;;;;;;5.47;2.65;;;;;;;5.12;74.55;93413.50;5526047;25;20008;-66
2024/04/18 02:15:41;;;;;;;3.50;2.63;;;;;;;5.27;74.91;93414.00;5527797;26;19989;-66
2024/04/18 02:18:06;;;;;;;5.57;2.90;;;;;;;5.57;77.90;93418.28;5527865;26;19990;-66
2024/04/18 02:20:32;;;;;;;4.03;2.67;;;;;;;5.48;77.70;93417.31;5522561;26;20483;-66
2024/04/18 02:22:57;;;;;;;3.25;2.38;;;;;;;5.46;75.86;93418.38;5527689;26;19993;-66
2024/04/18 02:25:23;;;;;;;3.80;2.80;;;;;;;5.31;73.73;93429.03;5495563;26;20002;-66
2024/04/18 02:27:48;;;;;;;4.18;2.60;;;;;;;5.09;73.40;93426.63;5464864;26;20021;-66
2024/04/18 02:30:13;;;;;;;3.50;2.75;;;;;;;5.11;75.30;93396.44;5492263;26;20013;-66
2024/04/18 02:32:39;;;;;;;3.47;2.38;;;;;;;5.39;74.24;93428.41;5465167;26;20022;-66
2024/04/18 02:35:04;;;;;;;3.80;2.58;;;;;;;5.34;75.92;93430.53;5495236;26;20008;-66
2024/04/18 02:37:30;;;;;;;3.42;2.58;;;;;;;5.06;73.38;93429.47;5495170;26;19986;-66
2024/04/18 02:39:55;;;;;;;3.40;2.60;;;;;;;5.40;75.08;93429.22;5522109;26;20001;-66
2024/04/18 02:42:21;;;;;;;6.63;3.00;;;;;;;5.19;73.78;93430.06;5495071;26;19997;-66
2024/04/18 02:44:46;;;;;;;3.92;2.70;;;;;;;5.24;72.61;93440.00;5527294;26;20373;-66
2024/04/18 02:47:12;;;;;;;4.03;3.00;;;;;;;4.96;72.51;93408.00;5523607;26;20026;-66
2024/04/18 02:49:37;;;;;;;3.38;2.42;;;;;;;5.26;72.04;93431.19;5554971;25;20004;-66
2024/04/18 02:52:03;;;;;;;3.42;2.55;;;;;;;5.08;71.93;93436.13;5527093;26;20077;-66
2024/04/18 02:54:28;;;;;;;3.63;2.92;;;;;;;5.34;73.43;93435.69;5494669;26;19989;-66
2024/04/18 02:56:54;;;;;;;3.00;2.50;;;;;;;5.20;72.58;93429.13;5458074;26;19994;-66
2024/04/18 02:59:19;;;;;;;4.15;3.08;;;;;;;5.28;71.89;93431.88;5464491;26;20029;-66
2024/04/18 03:01:45;;;;;;;4.75;3.97;;;;;;;5.28;72.41;93431.06;5494470;26;20507;-66
2024/04/18 03:04:10;;;;;;;5.75;3.20;;;;;;;5.13;71.88;93426.25;5464402;26;19990;-67
2024/04/18 03:06:35;;;;;;;4.18;3.00;;;;;;;5.15;72.10;93426.13;5521678;26;20034;-66
2024/04/18 03:09:01;;;;;;;4.18;3.15;;;;;;;5.28;72.02;93441.38;5526958;26;20435;-66
2024/04/18 03:11:26;;;;;;;3.92;2.75;;;;;;;5.38;72.16;93432.75;5464264;26;20014;-66
2024/04/18 03:13:52;;;;;;;4.78;4.03;;;;;;;5.18;71.92;93436.16;5493508;26;20010;-66
2024/04/18 03:16:17;;;;;;;3.78;2.80;;;;;;;4.89;72.16;93431.66;5491578;26;20010;-66
2024/04/18 03:18:42;;;;;;;4.00;2.83;;;;;;;5.14;72.79;93443.31;5527011;26;20038;-66
2024/04/18 03:21:08;;;;;;;3.72;2.90;;;;;;;5.22;72.82;93442.69;5464076;26;20061;-66
2024/04/18 03:23:33;;;;;;;3.60;2.78;;;;;;;5.23;71.40;93426.28;5524673;26;20009;-66
2024/04/18 03:25:59;;;;;;;3.83;3.28;;;;;;;5.28;73.88;93454.25;5523726;26;19993;-66
2024/04/18 03:28:24;;;;;;;4.18;3.10;;;;;;;5.14;73.80;93434.78;5494263;26;19993;-66
2024/04/18 03:30:50;;;;;;;4.30;3.00;;;;;;;5.29;72.77;93451.56;5526696;26;20436;-66
2024/04/18 03:33:15;;;;;;;4.07;3.00;;;;;;;5.29;73.36;93442.97;5456569;26;19998;-66
2024/04/18 03:35:41;;;;;;;4.70;4.20;;;;;;;5.27;72.67;93450.84;5526585;26;20009;-66
2024/04/18 03:38:06;;;;;;;3.67;2.75;;;;;;;5.03;72.63;93451.13;5462827;26;19993;-66
2024/04/18 03:40:32;;;;;;;4.75;3.35;;;;;;;5.14;74.50;93463.09;5526474;26;20432;-66
2024/04/18 03:42:57;;;;;;;4.53;3.38;;;;;;;5.09;73.18;93449.78;5454932;26;20365;-66
2024/04/18 03:45:23;;;;;;;3.38;2.80;;;;;;;5.21;74.05;93432.50;5526285;26;19993;-66
2024/04/18 03:47:51;;;;;;;3.95;3.00;;;;;;;5.24;73.37;93445.97;5526427;25;19989;-66
2024/04/18 03:50:17;;;;;;;4.30;3.47;;;;;;;5.04;73.43;93457.06;5526694;26;19990;-66
2024/04/18 03:52:42;;;;;;;4.47;3.38;;;;;;;4.97;72.59;93450.81;5521037;26;20008;-66
2024/04/18 03:55:08;;;;;;;4.28;3.00;;;;;;;5.15;72.64;93436.41;5526478;26;19989;-66
2024/04/18 03:57:33;;;;;;;4.53;3.38;;;;;;;5.21;73.50;93461.66;5493808;26;20004;-66
2024/04/18 03:59:58;;;;;;;3.97;3.17;;;;;;;5.19;74.57;93473.84;5525588;26;19989;-66
2024/04/18 04:02:24;;;;;;;4.45;3.53;;;;;;;5.17;72.40;93474.91;5488834;26;20440;-66
2024/04/18 04:04:50;;;;;;;3.72;3.00;;;;;;;5.25;72.92;93478.47;5493921;26;20012;-66
2024/04/18 04:07:16;;;;;;;3.90;3.08;;;;;;;5.32;72.86;93484.75;5526375;26;19989;-66
2024/04/18 04:09:42;;;;;;;6.85;3.13;;;;;;;5.43;73.73;93483.03;5522286;26;20004;-66
2024/04/18 04:12:07;;;;;;;4.18;2.90;;;;;;;5.28;72.64;93506.53;5524340;26;19997;-66
2024/04/18 04:14:32;;;;;;;4.65;3.33;;;;;;;5.43;72.38;93516.53;5524866;26;20069;-65
2024/04/18 04:16:58;;;;;;;6.75;3.40;;;;;;;5.53;71.55;93502.75;5525517;25;20348;-63
2024/04/18 04:19:23;;;;;;;5.35;3.70;;;;;;;5.17;70.67;93504.03;5520021;26;20016;-64
2024/04/18 04:21:49;;;;;;;4.35;3.10;;;;;;;5.48;72.42;93522.91;5525680;26;20021;-64
2024/04/18 04:24:14;;;;;;;6.90;3.30;;;;;;;5.36;72.25;93519.59;5525779;26;20282;-64
2024/04/18 04:26:39;;;;;;;4.70;3.40;;;;;;;5.41;72.50;93523.56;5525666;25;20023;-64
2024/04/18 04:29:05;;;;;;;4.40;3.15;;;;;;;5.47;72.24;93528.22;5446199;26;20002;-64
2024/04/18 04:31:30;;;;;;;4.82;3.50;;;;;;;5.27;73.31;93509.28;5448048;26;20472;-64
2024/04/18 04:33:56;;;;;;;4.72;3.45;;;;;;;5.34;71.55;93530.97;5493433;26;20033;-64
2024/04/18 04:36:22;;;;;;;5.78;3.42;;;;;;;5.34;72.15;93534.38;5525767;26;20012;-64
2024/04/18 04:38:47;;;;;;;5.55;3.20;;;;;;;5.48;71.85;93551.25;5491914;26;20331;-64
2024/04/18 04:41:12;;;;;;;4.45;3.40;;;;;;;5.64;72.48;93550.81;5525463;26;20004;-64
2024/04/18 04:43:38;;;;;;;3.97;3.35;;;;;;;5.59;71.56;93543.44;5491890;26;19993;-63
2024/04/18 04:46:05;;;;;;;4.57;3.35;;;;;;;5.68;72.68;93553.94;5429756;25;19995;-63
2024/04/18 04:48:30;;;;;;;4.40;3.45;;;;;;;5.51;71.08;93550.19;5492606;26;19993;-63
2024/04/18 04:51:00;;;;;;;5.10;3.53;;;;;;;5.62;71.36;93554.44;5493376;25;19986;-63
2024/04/18 04:53:25;;;;;;;5.25;4.25;;;;;;;5.54;70.19;93544.78;5520245;26;19998;-63
2024/04/18 04:55:51;;;;;;;5.15;3.63;;;;;;;5.61;70.89;93551.06;5487873;26;20371;-64
2024/04/18 04:58:16;;;;;;;4.20;3.28;;;;;;;5.62;71.00;93552.69;5425607;26;20087;-63
2024/04/18 05:00:42;;;;;;;4.78;3.53;;;;;;;5.53;71.09;93556.03;5472704;26;20001;-63
2024/04/18 05:03:07;;;;;;;5.57;3.38;;;;;;;5.67;71.16;93558.28;5458047;26;20062;-63
2024/04/18 05:05:33;;;;;;;4.20;3.45;;;;;;;5.85;69.93;93557.66;5489695;26;20549;-63
2024/04/18 05:07:58;;;;;;;6.05;3.50;;;;;;;5.92;71.47;93574.25;5522867;25;20025;-63
2024/04/18 05:10:24;;;;;;;5.07;3.78;;;;;;;5.86;69.69;93570.44;5467041;25;20005;-64
2024/04/18 05:12:52;;;;;;;4.40;3.33;;;;;;;5.85;70.13;93567.97;5487760;26;19998;-66
2024/04/18 05:15:18;;;;;;;4.35;3.42;;;;;;;5.62;70.00;93544.97;5521708;25;19989;-64
2024/04/18 05:17:43;;;;;;;4.35;3.47;;;;;;;5.75;70.63;93566.19;5489949;26;19997;-64
2024/04/18 05:20:09;;;;;;;6.93;3.50;;;;;;;5.76;70.08;93567.81;5437953;25;20025;-63
2024/04/18 05:22:34;;;;;;;3.88;2.95;;;;;;;5.81;70.32;93581.13;5458829;26;20042;-63
2024/04/18 05:25:00;;;;;;;3.85;3.40;;;;;;;5.95;70.27;93569.69;5491300;26;19997;-63
2024/04/18 05:27:25;;;;;;;4.03;2.70;;;;;;;5.90;69.07;93573.56;5523975;26;20085;-64
2024/04/18 05:32:34;;;;;;;4.88;2.67;;;;;;;6.17;68.81;93573.84;5511666;25;20008;-71
2024/04/18 05:35:00;;;;;;;4.10;2.90;;;;;;;6.42;69.01;93576.91;5490978;26;20001;-65
2024/04/18 05:37:26;;;;;;;3.45;2.80;;;;;;;6.52;67.38;93564.84;5525264;25;19990;-65
2024/04/18 05:39:51;;;;;;;4.18;3.08;;;;;;;6.28;67.49;93572.94;5496066;26;20017;-65
2024/04/18 05:42:17;;;;;;;4.57;2.95;;;;;;;6.63;68.79;93569.06;5489948;26;20001;-65
2024/04/18 05:44:42;;;;;;;5.10;2.92;;;;;;;6.71;66.85;93575.22;5526147;26;19998;-65
2024/04/18 05:47:08;;;;;;;3.40;2.50;;;;;;;6.65;66.93;93587.81;5492011;26;20091;-65
2024/04/18 05:49:33;;;;;;;3.88;2.40;;;;;;;6.60;67.03;93580.50;5436086;26;20321;-65
2024/04/18 05:51:58;;;;;;;3.85;3.00;;;;;;;6.47;66.96;93574.75;5519169;25;19990;-65
2024/04/18 05:54:24;;;;;;;3.90;2.70;;;;;;;6.59;66.32;93590.94;5506831;26;20000;-66
2024/04/18 05:56:49;;;;;;;5.00;3.97;;;;;;;6.59;66.70;93568.53;5490980;26;20050;-65
2024/04/18 05:59:15;;;;;;;6.78;4.50;;;;;;;6.80;66.89;93586.50;5522975;25;20392;-65
2024/04/18 06:01:41;;;;;;;4.20;3.45;;;;;;;6.99;67.12;93575.34;5508180;26;20355;-65
2024/04/18 06:04:06;;;;;;;4.43;2.60;;;;;;;7.27;65.13;93563.41;5484824;26;19998;-65
2024/04/18 06:06:33;;;;;;;3.30;2.70;;;;;;;7.45;64.96;93560.94;5394637;26;19998;-65
2024/04/18 06:08:59;;;;;;;3.55;2.72;;;;;;;7.51;64.02;93544.84;5423601;26;20006;-65
2024/04/18 06:11:35;;;;;;;3.47;2.45;;;;;;;7.84;64.97;93561.66;5454002;26;20347;-65
2024/04/18 06:14:02;;;;;;;4.15;2.55;;;;;;;7.51;63.05;93550.03;5456608;26;20008;-65
2024/04/18 06:16:28;;;;;;;8.35;3.65;;;;;;;7.49;62.64;93538.19;5426259;26;19998;-65
2024/04/18 06:18:54;;;;;;;5.75;3.60;;;;;;;7.30;63.36;93541.63;5425107;26;20066;-64
2024/04/18 06:21:20;;;;;;;3.95;2.78;;;;;;;7.43;63.71;93562.00;5428350;26;20576;-64
2024/04/18 06:23:45;;;;;;;3.20;2.05;;;;;;;7.24;62.80;93555.09;5490537;26;20010;-65
2024/04/18 06:26:11;;;;;;;4.22;2.00;;;;;;;7.45;63.30;93566.09;5490707;26;20001;-65
2024/04/18 06:28:36;;;;;;;2.45;1.75;;;;;;;7.83;62.01;93564.38;5458738;26;20030;-65
2024/04/18 06:31:01;;;;;;;2.30;1.80;;;;;;;7.94;61.70;93551.28;5489202;26;20004;-65
2024/04/18 06:33:29;;;;;;;3.35;2.00;;;;;;;7.98;61.33;93570.72;5458754;26;19994;-64
2024/04/18 06:35:55;;;;;;;3.42;2.28;;;;;;;8.12;61.03;93582.38;5459304;26;19994;-65
2024/04/18 06:38:20;;;;;;;2.58;1.80;;;;;;;7.94;60.83;93581.47;5458729;26;20013;-65
2024/04/18 06:40:46;;;;;;;2.92;1.65;;;;;;;7.68;61.96;93586.44;5491135;26;19998;-65
2024/04/18 06:43:12;;;;;;;4.00;1.80;;;;;;;8.19;63.36;93601.56;5459073;26;20009;-65
2024/04/18 06:45:38;;;;;;;4.85;2.17;;;;;;;8.40;59.58;93591.00;5459004;26;19994;-65
2024/04/18 06:48:08;;;;;;;3.65;1.98;;;;;;;8.19;60.65;93590.38;5458764;26;20016;-65
2024/04/18 06:50:35;;;;;;;5.32;2.10;;;;;;;8.58;60.94;93582.47;5457923;26;19991;-65
2024/04/18 06:53:01;;;;;;;2.90;2.10;;;;;;;9.06;58.48;93573.59;5490635;26;20403;-65
2024/04/18 06:55:26;;;;;;;3.38;1.60;;;;;;;9.25;56.64;93581.22;5491085;26;19998;-65
2024/04/18 06:57:51;;;;;;;2.67;1.35;;;;;;;9.56;54.79;93589.41;5458733;26;20030;-65
2024/04/18 07:00:17;;;;;;;2.45;1.27;;;;;;;9.69;53.99;93593.38;5490802;26;20062;-65
2024/04/18 07:02:43;;;;;;;2.30;1.45;;;;;;;9.44;54.25;93592.34;5458383;26;19990;-65
2024/04/18 07:05:09;;;;;;;2.83;1.70;;;;;;;9.18;53.70;93598.31;5458358;26;20001;-65
2024/04/18 07:07:34;;;;;;;2.00;1.40;;;;;;;9.08;52.75;93592.38;5489963;26;19994;-65
2024/04/18 07:09:59;;;;;;;3.30;1.42;;;;;;;9.37;54.58;93595.56;5490183;26;20014;-65
2024/04/18 07:12:25;;;;;;;1.90;1.30;;;;;;;9.76;52.97;93592.63;5490186;26;19991;-64
2024/04/18 07:14:50;;;;;;;3.03;1.73;;;;;;;9.96;52.85;93607.97;5490190;26;20063;-66
2024/04/18 07:17:16;;;;;;;2.00;1.10;;;;;;;10.23;50.93;93605.22;5457971;26;20373;-65
2024/04/18 07:19:42;;;;;;;1.92;1.25;;;;;;;10.27;49.50;93611.75;5489824;26;20006;-65
2024/04/18 07:22:07;;;;;;;1.70;1.20;;;;;;;10.40;50.31;93607.94;5489783;26;20562;-65
2024/04/18 07:24:33;;;;;;;4.25;1.20;;;;;;;10.45;50.86;93609.09;5490585;26;19990;-65
2024/04/18 07:26:58;;;;;;;1.73;1.17;;;;;;;10.38;49.07;93620.25;5490078;26;20314;-64
2024/04/18 07:29:23;;;;;;;1.73;1.30;;;;;;;10.29;49.01;93620.22;5427792;26;20004;-65
2024/04/18 07:31:49;;;;;;;2.38;1.50;;;;;;;10.28;49.55;93603.03;5489703;26;20031;-65
2024/04/18 07:34:14;;;;;;;1.88;1.27;;;;;;;10.27;50.98;93605.75;5427552;26;19993;-65
2024/04/18 07:36:40;;;;;;;1.92;1.20;;;;;;;10.15;51.49;93610.38;5489617;26;19994;-65
2024/04/18 07:39:05;;;;;;;2.22;1.30;;;;;;;10.31;50.56;93611.44;5457506;26;20030;-65
2024/04/18 07:41:31;;;;;;;1.92;1.33;;;;;;;10.21;52.29;93608.94;5457984;26;20344;-65
2024/04/18 07:43:56;;;;;;;3.63;2.20;;;;;;;9.61;52.86;93617.44;5427566;26;19998;-65
2024/04/18 07:46:26;;;;;;;2.30;1.40;;;;;;;9.62;53.29;93619.09;5427961;26;20066;-64
2024/04/18 07:48:51;;;;;;;3.88;1.60;;;;;;;9.80;53.09;93637.22;5458497;26;19998;-64
2024/04/18 07:51:17;;;;;;;2.90;1.38;;;;;;;9.53;53.11;93635.56;5427553;26;20070;-65
2024/04/18 07:53:42;;;;;;;2.03;1.50;;;;;;;9.57;51.87;93649.84;5427234;26;20480;-65
2024/04/18 07:56:08;;;;;;;4.13;1.60;;;;;;;9.16;53.53;93642.50;5457533;26;20039;-65
2024/04/18 07:58:34;;;;;;;2.30;1.73;;;;;;;8.99;53.41;93634.69;5457348;26;19994;-65
2024/04/18 08:00:59;;;;;;;4.07;1.45;;;;;;;9.08;52.99;93633.81;5488714;26;20448;-65
2024/04/18 08:03:24;;;;;;;2.33;1.45;;;;;;;9.25;52.54;93646.00;5457183;26;20006;-65
2024/04/18 08:05:50;;;;;;;3.10;1.52;;;;;;;9.45;51.77;93664.00;5489446;26;20002;-65
2024/04/18 08:08:15;;;;;;;1.95;1.33;;;;;;;9.51;50.18;93664.22;5489392;26;20010;-65
2024/04/18 08:10:41;;;;;;;1.80;1.27;;;;;;;9.56;51.09;93663.78;5457201;26;20022;-65
2024/04/18 08:13:06;;;;;;;1.98;1.30;;;;;;;9.74;49.73;93672.34;5489596;26;20009;-65
2024/04/18 08:15:36;;;;;;;4.10;1.85;;;;;;;9.54;48.63;93660.50;5489266;26;19998;-65
2024/04/18 08:18:02;;;;;;;1.90;1.30;;;;;;;9.08;49.18;93667.50;5428496;26;19990;-65
2024/04/18 08:20:27;;;;;;;2.33;1.42;;;;;;;9.74;48.87;93674.13;5489080;26;19990;-65
2024/04/18 08:22:54;;;;;;;2.70;1.30;;;;;;;9.90;50.11;93676.03;5488805;26;20009;-65
2024/04/18 08:25:19;;;;;;;3.17;1.67;;;;;;;10.08;49.74;93682.00;5457600;26;19993;-65
2024/04/18 08:27:44;;;;;;;3.03;1.63;;;;;;;10.15;49.11;93670.06;5456758;26;19998;-65
2024/04/18 08:30:10;;;;;;;2.53;1.60;;;;;;;10.10;48.91;93666.28;5456766;26;20002;-65
2024/04/18 08:32:36;;;;;;;2.10;1.55;;;;;;;10.15;49.10;93670.06;5456813;26;20063;-65
2024/04/18 08:35:01;;;;;;;2.55;1.70;;;;;;;10.52;49.76;93682.00;5457009;26;19990;-65
2024/04/18 08:37:26;;;;;;;3.10;1.40;;;;;;;10.33;47.39;93677.00;5488731;26;20023;-65
2024/04/18 08:39:52;;;;;;;2.95;1.30;;;;;;;10.41;50.53;93677.06;5456847;26;20507;-65
2024/04/18 08:42:19;;;;;;;1.70;1.27;;;;;;;10.57;49.07;93674.56;5426864;26;19994;-65
2024/04/18 08:44:44;;;;;;;1.80;1.40;;;;;;;10.78;46.53;93686.34;5427405;26;20002;-65
2024/04/18 08:47:10;;;;;;;3.25;1.50;;;;;;;10.82;48.31;93687.66;5456757;26;19994;-65
2024/04/18 08:49:36;;;;;;;2.83;1.50;;;;;;;10.62;47.39;93682.69;5426606;26;20019;-65
2024/04/18 08:52:02;;;;;;;2.00;1.35;;;;;;;10.67;48.49;93697.81;5456755;26;20385;-65
2024/04/18 08:54:29;;;;;;;2.28;1.40;;;;;;;10.45;47.09;93681.81;5456546;26;20002;-65
2024/04/18 08:56:56;;;;;;;3.80;1.35;;;;;;;10.39;49.13;93676.38;5457188;26;19994;-65
2024/04/18 08:59:22;;;;;;;3.80;1.60;;;;;;;10.64;49.12;93675.56;5396854;26;20074;-65
2024/04/18 09:01:48;;;;;;;4.15;1.90;;;;;;;10.02;48.80;93691.19;5456348;26;20448;-65
2024/04/18 09:04:13;;;;;;;3.17;1.85;;;;;;;10.24;49.17;93689.91;5456587;26;20010;-65
2024/04/18 09:06:39;;;;;;;5.80;5.20;;;;;;;9.95;49.82;93685.00;5488228;26;20013;-65
2024/04/18 09:09:08;;;;;;;3.95;2.30;;;;;;;10.24;49.71;93689.91;5426299;26;20436;-65
2024/04/18 09:11:34;;;;;;;3.85;2.53;;;;;;;10.11;50.16;93689.47;5488469;26;20005;-65
2024/04/18 09:13:59;;;;;;;3.20;1.73;;;;;;;10.26;49.95;93692.34;5429394;26;20495;-65
2024/04/18 09:16:25;;;;;;;2.30;1.75;;;;;;;10.41;49.01;93705.63;5459527;26;20018;-65
2024/04/18 09:18:50;;;;;;;2.70;1.75;;;;;;;10.51;49.24;93722.72;5491873;26;20005;-65
2024/04/18 09:21:16;;;;;;;2.30;1.70;;;;;;;10.27;47.81;93719.97;5459373;26;20343;-65
2024/04/18 09:23:41;;;;;;;2.03;1.40;;;;;;;10.22;49.85;93711.78;5491980;26;20021;-65
2024/04/18 09:26:07;;;;;;;2.75;2.08;;;;;;;9.77;50.77;93718.72;5491559;26;19994;-65
2024/04/18 09:28:38;;;;;;;4.82;3.15;;;;;;;9.28;54.19;93730.41;5429596;26;20232;-65
2024/04/18 09:31:03;;;;;;;3.42;2.53;;;;;;;9.12;55.75;93729.25;5492059;26;20010;-65
2024/04/18 09:33:29;;;;;;;2.97;2.05;;;;;;;9.56;54.75;93726.81;5459965;26;19997;-64
2024/04/18 09:36:00;;;;;;;3.13;2.33;;;;;;;9.43;53.98;93715.16;5429699;26;20006;-65
2024/04/18 09:38:29;;;;;;;3.35;2.33;;;;;;;9.49;53.30;93724.94;5431103;26;20432;-65
2024/04/18 09:41:20;;;;;;;3.83;2.70;;;;;;;9.58;53.65;93724.06;5429739;26;20407;-65
2024/04/18 09:43:46;;;;;;;;;;;;;;;9.77;53.69;93723.91;5492325;26;20354;-65
2024/04/18 09:46:11;;;;;;;4.40;2.87;;;;;;;9.54;54.53;93714.94;5491930;26;19965;-64
2024/04/18 09:48:36;;;;;;;5.28;3.00;;;;;;;9.72;52.80;93718.38;5429675;26;20344;-65
2024/04/18 09:51:02;;;;;;;3.13;2.10;;;;;;;10.03;51.84;93723.19;5459788;26;19990;-65
2024/04/18 09:53:29;;;;;;;2.10;1.70;;;;;;;10.20;51.45;93714.53;5429582;26;20053;-65
2024/04/18 09:55:54;;;;;;;2.50;1.77;;;;;;;9.73;50.17;93717.41;5491581;26;20014;-64
2024/04/18 09:58:20;;;;;;;1.92;1.42;;;;;;;9.85;50.39;93708.41;5399919;26;20001;-65
2024/04/18 10:00:45;;;;;;;2.60;1.50;;;;;;;9.68;50.61;93709.25;5459493;26;20066;-65
2024/04/18 10:03:11;;;;;;;2.78;1.67;;;;;;;9.47;50.47;93708.72;5429215;26;20063;-65
2024/04/18 10:05:38;;;;;;;3.42;2.42;;;;;;;9.59;51.11;93699.78;5489819;26;20017;-65
2024/04/18 10:08:04;;;;;;;3.40;1.88;;;;;;;9.82;51.27;93706.13;5459962;26;20082;-64
2024/04/18 10:10:29;;;;;;;2.55;1.70;;;;;;;10.02;49.13;93695.59;5429175;26;20385;-65
2024/04/18 10:12:56;;;;;;;2.70;1.90;;;;;;;9.90;50.24;93701.97;5458950;26;19996;-64
2024/04/18 10:15:23;;;;;;;2.20;1.70;;;;;;;9.91;50.25;93711.38;5459380;26;19986;-65
2024/04/18 10:17:49;;;;;;;2.97;1.80;;;;;;;9.95;49.67;93710.94;5491067;26;19991;-65
2024/04/18 10:20:14;;;;;;;3.00;1.98;;;;;;;10.05;49.91;93710.84;5490933;26;20000;-65
2024/04/18 10:22:40;;;;;;;4.05;1.75;;;;;;;10.17;50.56;93717.44;5458971;26;19990;-65
2024/04/18 10:25:18;;;;;;;1.80;1.40;;;;;;;10.15;50.46;93716.78;5458605;26;20316;-65
2024/04/18 10:27:44;;;;;;;4.85;1.50;;;;;;;9.96;50.26;93719.53;5491183;26;20002;-64
2024/04/18 10:30:13;;;;;;;3.20;1.50;;;;;;;10.33;51.38;93713.34;5428426;26;19990;-65
2024/04/18 10:32:41;;;;;;;2.22;1.85;;;;;;;10.64;49.41;93724.09;5458675;26;20005;-65
2024/04/18 10:35:07;;;;;;;1.92;1.45;;;;;;;10.83;46.97;93723.06;5428398;26;19990;-64
2024/04/18 10:37:32;;;;;;;1.90;1.25;;;;;;;10.79;47.56;93708.75;5490443;26;20001;-65
2024/04/18 10:39:58;;;;;;;1.80;1.30;;;;;;;10.80;46.12;93715.56;5458700;26;20001;-65
2024/04/18 10:42:24;;;;;;;2.67;1.25;;;;;;;10.90;46.27;93711.91;5458492;26;20023;-65
2024/04/18 10:44:50;;;;;;;2.95;1.30;;;;;;;11.19;46.09;93710.69;5458392;26;20066;-66
2024/04/18 10:47:19;;;;;;;1.63;1.00;;;;;;;11.12;45.96;93715.72;5491245;26;20437;-65
2024/04/18 10:49:45;;;;;;;1.98;1.50;;;;;;;11.12;47.21;93728.72;5428878;26;19994;-65
2024/04/18 10:52:13;;;;;;;5.40;3.10;;;;;;;10.26;49.43;93728.69;5490911;26;20160;-65
2024/04/18 10:54:39;;;;;;;3.90;2.30;;;;;;;10.08;49.37;93733.91;5399609;26;20029;-65
2024/04/18 10:57:04;;;;;;;3.67;2.10;;;;;;;10.38;48.82;93737.88;5458558;26;19994;-65
2024/04/18 10:59:30;;;;;;;3.67;2.25;;;;;;;10.20;50.96;93698.97;5458117;26;20004;-65
2024/04/18 11:02:05;;;;;;;3.15;2.30;;;;;;;10.57;49.74;93746.47;5428026;26;20005;-65
2024/04/18 11:04:31;;;;;;;2.72;2.28;;;;;;;10.61;50.45;93748.56;5490631;26;19990;-65
2024/04/18 11:06:56;;;;;;;3.90;2.25;;;;;;;9.98;50.11;93744.38;5458084;26;19994;-64
2024/04/18 11:09:21;;;;;;;4.70;2.10;;;;;;;10.00;51.21;93741.59;5427968;26;20088;-65
2024/04/18 11:11:47;;;;;;;4.32;2.00;;;;;;;10.34;51.55;93759.13;5398705;26;20005;-65
2024/04/18 11:14:13;;;;;;;3.13;2.35;;;;;;;10.11;51.38;93756.94;5457823;26;20444;-65
2024/04/18 11:16:38;;;;;;;3.58;2.05;;;;;;;9.78;51.47;93761.06;5458233;26;19990;-65
2024/04/18 11:19:03;;;;;;;2.58;1.90;;;;;;;9.89;51.23;93747.88;5428494;26;20001;-64
2024/04/18 11:21:29;;;;;;;3.80;1.90;;;;;;;10.07;51.39;93755.63;5427728;26;19990;-65
2024/04/18 11:23:55;;;;;;;3.88;2.20;;;;;;;9.90;51.15;93759.88;5457835;26;20436;-65
2024/04/18 11:26:21;;;;;;;4.82;2.05;;;;;;;9.98;51.45;93761.72;5458082;26;20342;-65
2024/04/18 11:28:50;;;;;;;2.92;1.90;;;;;;;10.25;50.94;93751.25;5427967;26;20444;-65
2024/04/18 11:31:16;;;;;;;2.42;1.70;;;;;;;10.28;50.70;93758.75;5457723;26;19997;-65
2024/04/18 11:33:41;;;;;;;2.30;1.70;;;;;;;10.28;50.92;93758.75;5489999;26;19990;-65
2024/04/18 11:36:07;;;;;;;2.10;1.60;;;;;;;10.10;50.00;93750.13;5488525;26;20005;-65